createdAt,value
2017-09-15T00:00:06.817Z,1004.34
2017-09-15T00:01:06.777Z,1004.33
2017-09-15T00:02:06.744Z,1004.31
2017-09-15T00:03:06.709Z,1004.33
2017-09-15T00:04:06.677Z,1004.36
2017-09-15T00:05:06.644Z,1004.41
2017-09-15T00:06:06.610Z,1004.38
2017-09-15T00:07:06.577Z,1004.38
2017-09-15T00:08:06.544Z,1004.32
2017-09-15T00:09:06.509Z,1004.24
2017-09-15T00:10:06.476Z,1004.37
2017-09-15T00:11:06.441Z,1004.33
2017-09-15T00:12:06.408Z,1004.37
2017-09-15T00:13:06.376Z,1004.37
2017-09-15T00:14:06.341Z,1004.35
2017-09-15T00:15:06.307Z,1004.38
2017-09-15T00:16:06.276Z,1004.29
2017-09-15T00:17:06.241Z,1004.32
2017-09-15T00:18:06.207Z,1004.39
2017-09-15T00:19:07.003Z,1004.36
2017-09-15T00:20:06.144Z,1004.43
2017-09-15T00:21:06.101Z,1004.41
2017-09-15T00:22:06.074Z,1004.46
2017-09-15T00:23:06.041Z,1004.35
2017-09-15T00:24:06.007Z,1004.51
2017-09-15T00:25:05.974Z,1004.45
2017-09-15T00:26:05.939Z,1004.49
2017-09-15T00:27:05.909Z,1004.31
2017-09-15T00:28:05.871Z,1004.52
2017-09-15T00:29:06.291Z,1004.45
2017-09-15T00:30:05.808Z,1004.51
2017-09-15T00:31:05.767Z,1004.45
2017-09-15T00:32:05.736Z,1004.48
2017-09-15T00:33:05.705Z,1004.45
2017-09-15T00:34:05.668Z,1004.46
2017-09-15T00:35:05.638Z,1004.50
2017-09-15T00:36:05.602Z,1004.50
2017-09-15T00:37:05.571Z,1004.54
2017-09-15T00:38:05.541Z,1004.58
2017-09-15T00:39:05.502Z,1004.53
2017-09-15T00:40:05.470Z,1004.53
2017-09-15T00:41:05.434Z,1004.56
2017-09-15T00:42:05.400Z,1004.60
2017-09-15T00:43:05.367Z,1004.55
2017-09-15T00:44:05.333Z,1004.58
2017-09-15T00:45:05.302Z,1004.55
2017-09-15T00:46:05.264Z,1004.54
2017-09-15T00:47:05.231Z,1004.56
2017-09-15T00:48:05.197Z,1004.56
2017-09-15T00:49:05.165Z,1004.52
2017-09-15T00:50:05.128Z,1004.58
2017-09-15T00:51:05.095Z,1004.64
2017-09-15T00:52:05.063Z,1004.64
2017-09-15T00:53:05.029Z,1004.58
2017-09-15T00:54:04.994Z,1004.62
2017-09-15T00:55:04.959Z,1004.65
2017-09-15T00:56:04.928Z,1004.62
2017-09-15T00:57:04.892Z,1004.60
2017-09-15T00:58:04.861Z,1004.59
2017-09-15T00:59:04.825Z,1004.56
2017-09-15T01:00:04.791Z,1004.62
2017-09-15T01:01:04.759Z,1004.54
2017-09-15T01:02:04.724Z,1004.61
2017-09-15T01:03:04.690Z,1004.58
2017-09-15T01:04:04.658Z,1004.67
2017-09-15T01:05:04.623Z,1004.64
2017-09-15T01:06:04.589Z,1004.63
2017-09-15T01:07:04.556Z,1004.63
2017-09-15T01:08:04.521Z,1004.66
2017-09-15T01:09:04.488Z,1004.68
2017-09-15T01:10:04.454Z,1004.66
2017-09-15T01:11:04.421Z,1004.63
2017-09-15T01:12:04.386Z,1004.69
2017-09-15T01:13:04.354Z,1004.69
2017-09-15T01:14:04.318Z,1004.63
2017-09-15T01:15:04.286Z,1004.65
2017-09-15T01:16:04.249Z,1004.63
2017-09-15T01:17:04.219Z,1004.70
2017-09-15T01:18:04.182Z,1004.71
2017-09-15T01:19:04.150Z,1004.77
2017-09-15T01:20:04.118Z,1004.74
2017-09-15T01:21:04.082Z,1004.71
2017-09-15T01:22:04.050Z,1004.73
2017-09-15T01:23:04.017Z,1004.72
2017-09-15T01:24:03.981Z,1004.68
2017-09-15T01:25:03.949Z,1004.68
2017-09-15T01:26:03.912Z,1004.69
2017-09-15T01:27:03.882Z,1004.73
2017-09-15T01:28:03.847Z,1004.74
2017-09-15T01:29:03.816Z,1004.74
2017-09-15T01:30:03.781Z,1004.76
2017-09-15T01:31:03.746Z,1004.70
2017-09-15T01:32:03.714Z,1004.76
2017-09-15T01:33:03.681Z,1004.71
2017-09-15T01:34:03.646Z,1004.73
2017-09-15T01:35:03.613Z,1004.69
2017-09-15T01:36:03.577Z,1004.70
2017-09-15T01:37:03.548Z,1004.57
2017-09-15T01:38:03.513Z,1004.58
2017-09-15T01:39:03.480Z,1004.63
2017-09-15T01:40:03.468Z,1004.53
2017-09-15T01:41:03.421Z,1004.60
2017-09-15T01:42:03.380Z,1004.63
2017-09-15T01:43:03.347Z,1004.56
2017-09-15T01:44:03.314Z,1004.55
2017-09-15T01:45:03.280Z,1004.60
2017-09-15T01:46:03.248Z,1004.57
2017-09-15T01:47:03.214Z,1004.63
2017-09-15T01:48:03.181Z,1004.61
2017-09-15T01:49:03.147Z,1004.58
2017-09-15T01:50:03.115Z,1004.60
2017-09-15T01:51:03.081Z,1004.65
2017-09-15T01:52:03.050Z,1004.58
2017-09-15T01:53:03.017Z,1004.60
2017-09-15T01:54:02.981Z,1004.61
2017-09-15T01:55:02.946Z,1004.57
2017-09-15T01:56:02.914Z,1004.57
2017-09-15T01:57:02.882Z,1004.58
2017-09-15T01:58:02.850Z,1004.59
2017-09-15T01:59:02.815Z,1004.56
2017-09-15T02:00:02.781Z,1004.49
2017-09-15T02:01:02.750Z,1004.52
2017-09-15T02:02:02.715Z,1004.47
2017-09-15T02:03:02.682Z,1004.38
2017-09-15T02:04:02.649Z,1004.46
2017-09-15T02:05:02.616Z,1004.47
2017-09-15T02:06:02.581Z,1004.41
2017-09-15T02:07:02.546Z,1004.44
2017-09-15T02:08:02.515Z,1004.38
2017-09-15T02:09:02.483Z,1004.34
2017-09-15T02:10:02.449Z,1004.39
2017-09-15T02:11:02.408Z,1004.38
2017-09-15T02:12:02.380Z,1004.35
2017-09-15T02:13:02.347Z,1004.36
2017-09-15T02:14:02.314Z,1004.33
2017-09-15T02:15:02.280Z,1004.27
2017-09-15T02:16:02.252Z,1004.29
2017-09-15T02:17:02.214Z,1004.32
2017-09-15T02:18:02.179Z,1004.26
2017-09-15T02:19:02.145Z,1004.23
2017-09-15T02:20:02.113Z,1004.27
2017-09-15T02:21:02.078Z,1004.23
2017-09-15T02:22:02.044Z,1004.29
2017-09-15T02:23:02.011Z,1004.29
2017-09-15T02:24:01.976Z,1004.15
2017-09-15T02:25:01.943Z,1004.27
2017-09-15T02:26:01.910Z,1004.26
2017-09-15T02:27:01.875Z,1004.27
2017-09-15T02:28:01.844Z,1004.22
2017-09-15T02:29:01.819Z,1004.18
2017-09-15T02:30:01.777Z,1004.23
2017-09-15T02:31:01.745Z,1004.23
2017-09-15T02:32:01.709Z,1004.19
2017-09-15T02:33:01.676Z,1004.25
2017-09-15T02:34:01.643Z,1004.14
2017-09-15T02:35:01.608Z,1004.25
2017-09-15T02:36:01.581Z,1004.26
2017-09-15T02:37:01.543Z,1004.20
2017-09-15T02:38:01.508Z,1004.23
2017-09-15T02:39:01.474Z,1004.19
2017-09-15T02:40:01.441Z,1004.20
2017-09-15T02:41:01.406Z,1004.22
2017-09-15T02:42:01.373Z,1004.15
2017-09-15T02:43:01.340Z,1004.12
2017-09-15T02:44:01.305Z,1004.12
2017-09-15T02:45:01.273Z,1004.14
2017-09-15T02:46:01.238Z,1004.18
2017-09-15T02:47:01.204Z,1004.15
2017-09-15T02:48:01.172Z,1004.14
2017-09-15T02:49:01.138Z,1004.18
2017-09-15T02:50:01.104Z,1004.09
2017-09-15T02:51:01.081Z,1004.14
2017-09-15T02:52:01.048Z,1004.17
2017-09-15T02:53:01.006Z,1004.15
2017-09-15T02:54:00.974Z,1004.05
2017-09-15T02:55:00.934Z,1004.15
2017-09-15T02:56:00.902Z,1004.13
2017-09-15T02:57:00.870Z,1004.07
2017-09-15T02:58:00.836Z,1004.08
2017-09-15T02:59:00.803Z,1004.15
2017-09-15T03:00:00.768Z,1004.11
2017-09-15T03:01:00.736Z,1004.14
2017-09-15T03:02:00.700Z,1004.18
2017-09-15T03:03:00.667Z,1004.15
2017-09-15T03:04:00.634Z,1004.13
2017-09-15T03:05:00.604Z,1004.18
2017-09-15T03:06:00.569Z,1004.12
2017-09-15T03:07:00.532Z,1004.12
2017-09-15T03:08:00.501Z,1004.10
2017-09-15T03:09:00.472Z,1004.11
2017-09-15T03:10:00.434Z,1004.03
2017-09-15T03:11:00.399Z,1004.12
2017-09-15T03:12:00.365Z,1004.13
2017-09-15T03:13:00.333Z,1004.09
2017-09-15T03:14:00.380Z,1004.12
2017-09-15T03:15:00.268Z,1004.00
2017-09-15T03:16:00.235Z,1004.10
2017-09-15T03:17:00.382Z,1004.10
2017-09-15T03:18:00.204Z,1004.14
2017-09-15T03:19:00.129Z,1004.07
2017-09-15T03:20:00.384Z,1004.11
2017-09-15T03:21:00.068Z,1004.08
2017-09-15T03:22:00.032Z,1004.10
2017-09-15T03:22:59.997Z,1004.08
2017-09-15T03:23:59.961Z,1004.09
2017-09-15T03:24:59.932Z,1004.05
2017-09-15T03:25:59.896Z,1004.09
2017-09-15T03:26:59.860Z,1004.05
2017-09-15T03:27:59.828Z,1004.05
2017-09-15T03:28:59.794Z,1003.96
2017-09-15T03:29:59.760Z,1004.14
2017-09-15T03:30:59.733Z,1004.14
2017-09-15T03:31:59.726Z,1004.07
2017-09-15T03:32:59.659Z,1004.14
2017-09-15T03:33:59.625Z,1004.13
2017-09-15T03:34:59.594Z,1004.08
2017-09-15T03:35:59.559Z,1004.11
2017-09-15T03:36:59.526Z,1004.06
2017-09-15T03:38:00.024Z,1003.98
2017-09-15T03:38:59.458Z,1004.05
2017-09-15T03:39:59.427Z,1004.08
2017-09-15T03:40:59.393Z,1004.06
2017-09-15T03:41:59.358Z,1004.10
2017-09-15T03:42:59.324Z,1004.11
2017-09-15T03:43:59.291Z,1004.11
2017-09-15T03:44:59.257Z,1004.09
2017-09-15T03:45:59.224Z,1004.01
2017-09-15T03:46:59.191Z,1004.06
2017-09-15T03:47:59.159Z,1004.08
2017-09-15T03:48:59.124Z,1004.09
2017-09-15T03:49:59.089Z,1004.10
2017-09-15T03:50:59.061Z,1004.08
2017-09-15T03:51:59.024Z,1004.13
2017-09-15T03:52:58.992Z,1004.07
2017-09-15T03:53:58.959Z,1004.06
2017-09-15T03:54:58.922Z,1004.06
2017-09-15T03:55:58.889Z,1004.09
2017-09-15T03:56:58.857Z,1004.08
2017-09-15T03:57:58.822Z,1004.03
2017-09-15T03:58:58.789Z,1004.03
2017-09-15T03:59:58.756Z,1004.08
2017-09-15T04:00:58.723Z,1004.04
2017-09-15T04:01:58.693Z,1004.06
2017-09-15T04:02:58.658Z,1004.06
2017-09-15T04:03:58.623Z,1004.09
2017-09-15T04:04:58.590Z,1003.98
2017-09-15T04:05:58.554Z,1004.09
2017-09-15T04:06:58.522Z,1004.05
2017-09-15T04:07:58.489Z,1004.08
2017-09-15T04:08:58.455Z,1004.07
2017-09-15T04:09:58.422Z,1004.06
2017-09-15T04:10:58.389Z,1003.99
2017-09-15T04:11:58.356Z,1003.99
2017-09-15T04:12:58.322Z,1004.03
2017-09-15T04:13:58.287Z,1004.03
2017-09-15T04:14:58.256Z,1004.00
2017-09-15T04:15:58.225Z,1003.95
2017-09-15T04:16:58.189Z,1003.99
2017-09-15T04:17:58.153Z,1003.95
2017-09-15T04:18:58.121Z,1003.98
2017-09-15T04:19:58.086Z,1004.04
2017-09-15T04:20:58.054Z,1004.00
2017-09-15T04:21:58.020Z,1004.01
2017-09-15T04:22:57.987Z,1004.00
2017-09-15T04:23:57.953Z,1003.97
2017-09-15T04:24:57.922Z,1003.99
2017-09-15T04:25:58.359Z,1003.98
2017-09-15T04:26:57.858Z,1003.97
2017-09-15T04:27:57.818Z,1004.00
2017-09-15T04:28:57.786Z,1003.98
2017-09-15T04:29:57.753Z,1004.00
2017-09-15T04:30:57.719Z,1004.03
2017-09-15T04:31:57.685Z,1004.03
2017-09-15T04:32:57.652Z,1004.00
2017-09-15T04:33:57.617Z,1004.03
2017-09-15T04:34:57.585Z,1004.06
2017-09-15T04:35:57.552Z,1004.02
2017-09-15T04:36:57.519Z,1004.00
2017-09-15T04:37:57.484Z,1004.02
2017-09-15T04:38:57.606Z,1004.02
2017-09-15T04:39:57.417Z,1004.04
2017-09-15T04:40:57.384Z,1004.07
2017-09-15T04:41:57.351Z,1003.99
2017-09-15T04:42:57.317Z,1003.97
2017-09-15T04:43:57.740Z,1003.96
2017-09-15T04:44:57.250Z,1003.97
2017-09-15T04:45:57.220Z,1003.96
2017-09-15T04:46:57.183Z,1003.97
2017-09-15T04:47:57.152Z,1003.98
2017-09-15T04:48:57.116Z,1003.95
2017-09-15T04:49:57.082Z,1003.92
2017-09-15T04:50:57.048Z,1003.92
2017-09-15T04:51:57.016Z,1003.93
2017-09-15T04:52:56.983Z,1003.78
2017-09-15T04:53:56.949Z,1003.81
2017-09-15T04:54:56.913Z,1003.88
2017-09-15T04:55:56.972Z,1003.80
2017-09-15T04:56:56.850Z,1003.83
2017-09-15T04:57:56.815Z,1003.86
2017-09-15T04:58:56.782Z,1003.84
2017-09-15T04:59:56.975Z,1003.78
2017-09-15T05:00:56.715Z,1003.82
2017-09-15T05:01:56.681Z,1003.77
2017-09-15T05:02:56.649Z,1003.76
2017-09-15T05:03:56.615Z,1003.76
2017-09-15T05:04:56.583Z,1003.76
2017-09-15T05:05:56.548Z,1003.72
2017-09-15T05:06:56.513Z,1003.74
2017-09-15T05:07:56.480Z,1003.71
2017-09-15T05:08:56.450Z,1003.71
2017-09-15T05:09:56.414Z,1003.71
2017-09-15T05:10:56.380Z,1003.68
2017-09-15T05:11:56.347Z,1003.71
2017-09-15T05:12:56.314Z,1003.65
2017-09-15T05:13:56.284Z,1003.70
2017-09-15T05:14:56.249Z,1003.70
2017-09-15T05:15:56.215Z,1003.68
2017-09-15T05:16:56.179Z,1003.61
2017-09-15T05:17:56.153Z,1003.72
2017-09-15T05:18:56.116Z,1003.69
2017-09-15T05:19:56.132Z,1003.67
2017-09-15T05:20:56.049Z,1003.67
2017-09-15T05:21:56.016Z,1003.68
2017-09-15T05:22:55.982Z,1003.71
2017-09-15T05:23:55.949Z,1003.68
2017-09-15T05:24:55.911Z,1003.63
2017-09-15T05:25:55.883Z,1003.65
2017-09-15T05:26:55.847Z,1003.62
2017-09-15T05:27:55.817Z,1003.66
2017-09-15T05:28:55.784Z,1003.67
2017-09-15T05:29:55.751Z,1003.63
2017-09-15T05:30:55.717Z,1003.63
2017-09-15T05:31:55.679Z,1003.58
2017-09-15T05:32:55.653Z,1003.62
2017-09-15T05:33:55.618Z,1003.63
2017-09-15T05:34:55.584Z,1003.61
2017-09-15T05:35:55.553Z,1003.66
2017-09-15T05:36:55.520Z,1003.63
2017-09-15T05:37:55.485Z,1003.55
2017-09-15T05:38:55.451Z,1003.53
2017-09-15T05:39:55.723Z,1003.56
2017-09-15T05:40:55.455Z,1003.58
2017-09-15T05:41:55.352Z,1003.49
2017-09-15T05:42:55.318Z,1003.53
2017-09-15T05:43:55.286Z,1003.51
2017-09-15T05:44:55.253Z,1003.56
2017-09-15T05:45:55.218Z,1003.51
2017-09-15T05:46:55.501Z,1003.48
2017-09-15T05:47:55.151Z,1003.46
2017-09-15T05:48:55.120Z,1003.49
2017-09-15T05:49:55.085Z,1003.42
2017-09-15T05:50:55.051Z,1003.45
2017-09-15T05:51:55.019Z,1003.44
2017-09-15T05:52:54.984Z,1003.42
2017-09-15T05:53:54.951Z,1003.45
2017-09-15T05:54:54.917Z,1003.50
2017-09-15T05:55:54.884Z,1003.52
2017-09-15T05:56:54.851Z,1003.50
2017-09-15T05:57:54.818Z,1003.50
2017-09-15T05:58:54.783Z,1003.48
2017-09-15T05:59:54.750Z,1003.43
2017-09-15T06:00:54.716Z,1003.50
2017-09-15T06:01:54.683Z,1003.48
2017-09-15T06:02:54.649Z,1003.49
2017-09-15T06:03:54.618Z,1003.50
2017-09-15T06:04:54.586Z,1003.48
2017-09-15T06:05:54.579Z,1003.50
2017-09-15T06:06:54.517Z,1003.49
2017-09-15T06:07:54.481Z,1003.50
2017-09-15T06:08:54.449Z,1003.52
2017-09-15T06:09:54.413Z,1003.46
2017-09-15T06:10:54.383Z,1003.42
2017-09-15T06:11:54.350Z,1003.48
2017-09-15T06:12:54.314Z,1003.53
2017-09-15T06:13:54.281Z,1003.49
2017-09-15T06:14:54.256Z,1003.47
2017-09-15T06:15:54.212Z,1003.48
2017-09-15T06:16:54.182Z,1003.43
2017-09-15T06:17:54.146Z,1003.47
2017-09-15T06:18:54.113Z,1003.49
2017-09-15T06:19:54.079Z,1003.49
2017-09-15T06:20:54.047Z,1003.51
2017-09-15T06:21:54.014Z,1003.46
2017-09-15T06:22:53.978Z,1003.41
2017-09-15T06:23:53.945Z,1003.51
2017-09-15T06:24:53.909Z,1003.51
2017-09-15T06:25:53.879Z,1003.47
2017-09-15T06:26:53.846Z,1003.52
2017-09-15T06:27:53.824Z,1003.57
2017-09-15T06:28:53.779Z,1003.54
2017-09-15T06:29:53.744Z,1003.60
2017-09-15T06:30:53.715Z,1003.64
2017-09-15T06:31:53.679Z,1003.60
2017-09-15T06:32:53.647Z,1003.64
2017-09-15T06:33:53.613Z,1003.64
2017-09-15T06:34:53.578Z,1003.71
2017-09-15T06:35:53.546Z,1003.70
2017-09-15T06:36:53.514Z,1003.55
2017-09-15T06:37:53.478Z,1003.67
2017-09-15T06:38:53.450Z,1003.60
2017-09-15T06:39:53.416Z,1003.66
2017-09-15T06:40:53.385Z,1003.51
2017-09-15T06:41:53.350Z,1003.59
2017-09-15T06:42:53.323Z,1003.60
2017-09-15T06:43:53.290Z,1003.55
2017-09-15T06:44:53.256Z,1003.51
2017-09-15T06:45:53.221Z,1003.58
2017-09-15T06:46:53.189Z,1003.61
2017-09-15T06:47:53.169Z,1003.59
2017-09-15T06:48:53.127Z,1003.58
2017-09-15T06:49:53.094Z,1003.57
2017-09-15T06:50:53.061Z,1003.62
2017-09-15T06:51:53.031Z,1003.59
2017-09-15T06:52:52.994Z,1003.56
2017-09-15T06:53:52.968Z,1003.58
2017-09-15T06:54:52.935Z,1003.53
2017-09-15T06:55:52.905Z,1003.58
2017-09-15T06:56:52.872Z,1003.62
2017-09-15T06:57:52.843Z,1003.59
2017-09-15T06:58:52.809Z,1003.58
2017-09-15T06:59:52.782Z,1003.63
2017-09-15T07:00:52.746Z,1003.64
2017-09-15T07:01:52.714Z,1003.59
2017-09-15T07:02:52.682Z,1003.64
2017-09-15T07:03:52.652Z,1003.63
2017-09-15T07:04:52.619Z,1003.65
2017-09-15T07:05:52.587Z,1003.64
2017-09-15T07:06:52.574Z,1003.67
2017-09-15T07:07:52.526Z,1003.70
2017-09-15T07:08:52.495Z,1003.68
2017-09-15T07:09:52.464Z,1003.71
2017-09-15T07:10:52.430Z,1003.69
2017-09-15T07:11:52.400Z,1003.70
2017-09-15T07:12:52.371Z,1003.74
2017-09-15T07:13:52.336Z,1003.78
2017-09-15T07:14:52.307Z,1003.69
2017-09-15T07:15:52.276Z,1003.72
2017-09-15T07:16:52.245Z,1003.74
2017-09-15T07:17:52.217Z,1003.76
2017-09-15T07:18:52.186Z,1003.75
2017-09-15T07:19:52.156Z,1003.80
2017-09-15T07:20:52.125Z,1003.76
2017-09-15T07:21:52.096Z,1003.83
2017-09-15T07:22:52.066Z,1003.79
2017-09-15T07:23:52.037Z,1003.77
2017-09-15T07:24:52.007Z,1003.77
2017-09-15T07:25:51.976Z,1003.81
2017-09-15T07:26:52.168Z,1003.77
2017-09-15T07:27:51.918Z,1003.76
2017-09-15T07:28:51.889Z,1003.75
2017-09-15T07:29:51.859Z,1003.71
2017-09-15T07:30:51.828Z,1003.74
2017-09-15T07:31:51.799Z,1003.79
2017-09-15T07:32:51.769Z,1003.79
2017-09-15T07:33:51.739Z,1003.79
2017-09-15T07:34:52.486Z,1003.79
2017-09-15T07:35:51.680Z,1003.82
2017-09-15T07:36:51.651Z,1003.80
2017-09-15T07:37:51.620Z,1003.73
2017-09-15T07:38:51.586Z,1003.81
2017-09-15T07:39:51.563Z,1003.81
2017-09-15T07:40:51.532Z,1003.80
2017-09-15T07:41:51.501Z,1003.82
2017-09-15T07:42:51.471Z,1003.77
2017-09-15T07:43:51.440Z,1003.75
2017-09-15T07:44:51.484Z,1003.79
2017-09-15T07:45:51.379Z,1003.82
2017-09-15T07:46:51.348Z,1003.82
2017-09-15T07:47:51.315Z,1003.83
2017-09-15T07:48:51.288Z,1003.84
2017-09-15T07:49:51.257Z,1003.86
2017-09-15T07:50:51.227Z,1003.88
2017-09-15T07:51:51.196Z,1003.87
2017-09-15T07:52:51.165Z,1003.89
2017-09-15T07:53:51.135Z,1003.83
2017-09-15T07:54:51.105Z,1003.87
2017-09-15T07:55:51.074Z,1003.92
2017-09-15T07:56:51.044Z,1003.91
2017-09-15T07:57:51.013Z,1003.93
2017-09-15T07:58:50.986Z,1003.91
2017-09-15T07:59:50.953Z,1003.94
2017-09-15T08:00:50.924Z,1003.99
2017-09-15T08:01:50.891Z,1003.98
2017-09-15T08:02:50.861Z,1003.93
2017-09-15T08:03:50.831Z,1003.92
2017-09-15T08:04:50.801Z,1003.90
2017-09-15T08:05:50.771Z,1004.01
2017-09-15T08:06:50.738Z,1003.96
2017-09-15T08:07:50.710Z,1003.93
2017-09-15T08:08:50.678Z,1004.02
2017-09-15T08:09:50.650Z,1003.98
2017-09-15T08:10:50.620Z,1003.97
2017-09-15T08:11:50.589Z,1004.00
2017-09-15T08:12:50.563Z,1004.00
2017-09-15T08:13:50.533Z,1003.86
2017-09-15T08:14:50.501Z,1004.02
2017-09-15T08:15:50.471Z,1004.05
2017-09-15T08:16:50.441Z,1004.00
2017-09-15T08:17:50.410Z,1003.99
2017-09-15T08:18:50.382Z,1004.06
2017-09-15T08:19:50.353Z,1004.04
2017-09-15T08:20:50.326Z,1004.03
2017-09-15T08:21:50.295Z,1004.03
2017-09-15T08:22:50.265Z,1004.05
2017-09-15T08:23:50.237Z,1004.11
2017-09-15T08:24:50.209Z,1004.07
2017-09-15T08:25:50.179Z,1004.11
2017-09-15T08:26:50.149Z,1004.17
2017-09-15T08:27:50.121Z,1004.06
2017-09-15T08:28:50.094Z,1004.10
2017-09-15T08:29:50.064Z,1004.13
2017-09-15T08:30:50.038Z,1004.11
2017-09-15T08:31:50.009Z,1004.06
2017-09-15T08:32:49.996Z,1004.38
2017-09-15T08:33:49.954Z,1004.37
2017-09-15T08:34:49.927Z,1004.09
2017-09-15T08:35:49.900Z,1004.08
2017-09-15T08:36:49.872Z,1004.10
2017-09-15T08:37:49.847Z,1004.13
2017-09-15T08:38:49.820Z,1004.11
2017-09-15T08:39:49.795Z,1004.12
2017-09-15T08:40:49.768Z,1004.09
2017-09-15T08:41:49.742Z,1004.53
2017-09-15T08:42:49.718Z,1004.55
2017-09-15T08:43:49.690Z,1004.16
2017-09-15T08:44:49.666Z,1004.13
2017-09-15T08:45:49.640Z,1003.98
2017-09-15T08:46:49.870Z,1003.99
2017-09-15T08:47:49.591Z,1003.93
2017-09-15T08:48:49.566Z,1004.05
2017-09-15T08:49:49.547Z,1004.16
2017-09-15T08:50:49.516Z,1003.98
2017-09-15T08:51:49.491Z,1004.34
2017-09-15T08:52:49.469Z,1004.22
2017-09-15T08:53:49.443Z,1004.02
2017-09-15T08:54:49.422Z,1004.07
2017-09-15T08:55:49.401Z,1004.41
2017-09-15T08:56:49.378Z,1003.99
2017-09-15T08:57:49.353Z,1004.48
2017-09-15T08:58:49.332Z,1004.26
2017-09-15T08:59:49.309Z,1004.27
2017-09-15T09:00:49.289Z,1004.94
2017-09-15T09:01:49.268Z,1004.15
2017-09-15T09:02:49.252Z,1005.01
2017-09-15T09:03:49.228Z,1004.13
2017-09-15T09:04:49.208Z,1003.76
2017-09-15T09:05:49.186Z,1003.75
2017-09-15T09:06:49.166Z,1003.83
2017-09-15T09:07:49.148Z,1003.85
2017-09-15T09:08:49.127Z,1003.79
2017-09-15T09:09:49.105Z,1003.77
2017-09-15T09:10:49.081Z,1003.75
2017-09-15T09:11:49.062Z,1003.75
2017-09-15T09:12:49.041Z,1004.24
2017-09-15T09:13:49.017Z,1004.27
2017-09-15T09:14:48.995Z,1004.24
2017-09-15T09:15:48.972Z,1004.26
2017-09-15T09:16:48.953Z,1004.25
2017-09-15T09:17:48.927Z,1004.15
2017-09-15T09:18:48.904Z,1003.56
2017-09-15T09:19:48.882Z,1003.45
2017-09-15T09:20:48.861Z,1003.63
2017-09-15T09:21:48.837Z,1003.61
2017-09-15T09:22:48.815Z,1003.54
2017-09-15T09:23:48.792Z,1003.95
2017-09-15T09:24:48.769Z,1003.82
2017-09-15T09:25:48.744Z,1003.53
2017-09-15T09:26:48.721Z,1003.48
2017-09-15T09:27:48.699Z,1003.38
2017-09-15T09:28:48.674Z,1003.39
2017-09-15T09:29:48.654Z,1003.39
2017-09-15T09:30:48.628Z,1003.39
2017-09-15T09:31:48.605Z,1003.47
2017-09-15T09:32:48.579Z,1003.43
2017-09-15T09:33:48.556Z,1003.50
2017-09-15T09:34:48.530Z,1003.41
2017-09-15T09:35:48.507Z,1003.41
2017-09-15T09:36:48.480Z,1003.34
2017-09-15T09:37:48.453Z,1003.43
2017-09-15T09:38:48.428Z,1003.38
2017-09-15T09:39:48.402Z,1003.28
2017-09-15T09:40:48.376Z,1003.28
2017-09-15T09:41:48.351Z,1003.29
2017-09-15T09:42:48.321Z,1003.39
2017-09-15T09:43:48.295Z,1003.36
2017-09-15T09:44:48.952Z,1003.26
2017-09-15T09:45:48.239Z,1003.26
2017-09-15T09:46:48.216Z,1003.29
2017-09-15T09:47:48.183Z,1003.13
2017-09-15T09:48:48.155Z,1003.23
2017-09-15T09:49:48.127Z,1003.35
2017-09-15T09:50:48.107Z,1003.44
2017-09-15T09:51:48.071Z,1003.33
2017-09-15T09:52:48.043Z,1003.25
2017-09-15T09:53:48.014Z,1003.31
2017-09-15T09:54:47.984Z,1003.35
2017-09-15T09:55:47.955Z,1003.49
2017-09-15T09:56:47.927Z,1003.46
2017-09-15T09:57:47.896Z,1003.51
2017-09-15T09:58:47.867Z,1003.45
2017-09-15T09:59:47.839Z,1003.44
2017-09-15T10:00:47.808Z,1003.48
2017-09-15T10:01:47.781Z,1003.48
2017-09-15T10:02:47.750Z,1003.49
2017-09-15T10:03:47.721Z,1003.50
2017-09-15T10:04:47.691Z,1003.52
2017-09-15T10:05:47.662Z,1003.61
2017-09-15T10:06:47.632Z,1003.62
2017-09-15T10:07:47.603Z,1003.69
2017-09-15T10:08:47.597Z,1003.69
2017-09-15T10:09:47.542Z,1003.65
2017-09-15T10:10:47.512Z,1003.75
2017-09-15T10:11:47.484Z,1003.79
2017-09-15T10:12:47.455Z,1003.83
2017-09-15T10:13:47.425Z,1004.05
2017-09-15T10:14:47.396Z,1004.05
2017-09-15T10:15:47.368Z,1004.16
2017-09-15T10:16:47.341Z,1003.97
2017-09-15T10:17:47.312Z,1003.80
2017-09-15T10:18:47.287Z,1003.88
2017-09-15T10:19:47.262Z,1003.82
2017-09-15T10:20:47.236Z,1003.83
2017-09-15T10:21:47.212Z,1003.84
2017-09-15T10:22:47.190Z,1003.96
2017-09-15T10:23:47.163Z,1004.01
2017-09-15T10:24:47.137Z,1003.94
2017-09-15T10:25:47.118Z,1003.98
2017-09-15T10:26:47.093Z,1003.77
2017-09-15T10:27:47.074Z,1003.65
2017-09-15T10:28:47.049Z,1003.65
2017-09-15T10:29:47.025Z,1003.56
2017-09-15T10:30:47.003Z,1003.50
2017-09-15T10:31:46.979Z,1003.56
2017-09-15T10:32:46.956Z,1003.74
2017-09-15T10:33:46.933Z,1003.95
2017-09-15T10:34:46.906Z,1003.96
2017-09-15T10:35:46.885Z,1003.64
2017-09-15T10:36:46.863Z,1003.80
2017-09-15T10:37:46.838Z,1004.17
2017-09-15T10:38:46.816Z,1004.18
2017-09-15T10:39:46.794Z,1004.22
2017-09-15T10:40:46.773Z,1003.80
2017-09-15T10:41:46.749Z,1003.73
2017-09-15T10:42:46.729Z,1003.75
2017-09-15T10:43:46.709Z,1004.21
2017-09-15T10:44:46.687Z,1003.75
2017-09-15T10:45:46.665Z,1003.65
2017-09-15T10:46:46.644Z,1003.61
2017-09-15T10:47:46.623Z,1003.61
2017-09-15T10:48:46.604Z,1003.52
2017-09-15T10:49:46.579Z,1003.51
2017-09-15T10:50:46.558Z,1003.46
2017-09-15T10:51:46.536Z,1003.36
2017-09-15T10:52:46.518Z,1003.37
2017-09-15T10:53:46.490Z,1003.38
2017-09-15T10:54:46.468Z,1003.41
2017-09-15T10:55:46.459Z,1003.26
2017-09-15T10:56:46.422Z,1003.24
2017-09-15T10:57:46.396Z,1003.13
2017-09-15T10:58:46.373Z,1003.26
2017-09-15T10:59:46.605Z,1003.29
2017-09-15T11:00:46.322Z,1003.77
2017-09-15T11:01:46.297Z,1003.47
2017-09-15T11:02:46.732Z,1003.39
2017-09-15T11:03:46.249Z,1003.66
2017-09-15T11:04:46.224Z,1003.63
2017-09-15T11:05:46.199Z,1003.27
2017-09-15T11:06:46.176Z,1003.20
2017-09-15T11:07:46.152Z,1002.98
2017-09-15T11:08:46.128Z,1003.11
2017-09-15T11:09:46.105Z,1003.13
2017-09-15T11:10:46.079Z,1003.12
2017-09-15T11:11:46.058Z,1003.16
2017-09-15T11:12:46.032Z,1003.20
2017-09-15T11:13:46.010Z,1003.18
2017-09-15T11:14:45.982Z,1003.11
2017-09-15T11:15:45.955Z,1003.15
2017-09-15T11:16:45.930Z,1003.17
2017-09-15T11:17:45.902Z,1003.18
2017-09-15T11:18:45.877Z,1003.18
2017-09-15T11:19:45.851Z,1003.23
2017-09-15T11:20:45.832Z,1003.29
2017-09-15T11:21:45.796Z,1003.26
2017-09-15T11:22:45.770Z,1003.34
2017-09-15T11:23:45.738Z,1003.60
2017-09-15T11:24:45.718Z,1003.68
2017-09-15T11:25:45.691Z,1003.78
2017-09-15T11:26:45.665Z,1003.69
2017-09-15T11:27:45.641Z,1003.81
2017-09-15T11:28:45.616Z,1003.64
2017-09-15T11:29:45.589Z,1003.66
2017-09-15T11:30:45.568Z,1003.67
2017-09-15T11:31:45.544Z,1003.84
2017-09-15T11:32:45.520Z,1003.43
2017-09-15T11:33:45.497Z,1003.49
2017-09-15T11:34:45.473Z,1003.51
2017-09-15T11:35:45.453Z,1003.67
2017-09-15T11:36:45.430Z,1003.52
2017-09-15T11:37:45.407Z,1003.41
2017-09-15T11:38:45.387Z,1003.28
2017-09-15T11:39:45.365Z,1003.63
2017-09-15T11:40:45.343Z,1003.53
2017-09-15T11:41:45.322Z,1003.42
2017-09-15T11:42:45.299Z,1003.37
2017-09-15T11:43:45.278Z,1003.56
2017-09-15T11:44:45.257Z,1003.43
2017-09-15T11:45:45.237Z,1003.47
2017-09-15T11:46:45.215Z,1003.38
2017-09-15T11:47:45.195Z,1003.54
2017-09-15T11:48:45.173Z,1003.43
2017-09-15T11:49:45.152Z,1003.52
2017-09-15T11:50:45.132Z,1003.78
2017-09-15T11:51:45.124Z,1003.61
2017-09-15T11:52:45.096Z,1003.73
2017-09-15T11:53:45.073Z,1003.64
2017-09-15T11:54:45.053Z,1003.47
2017-09-15T11:55:45.034Z,1003.60
2017-09-15T11:56:45.016Z,1002.98
2017-09-15T11:57:44.996Z,1002.98
2017-09-15T11:58:44.976Z,1003.37
2017-09-15T11:59:44.955Z,1003.05
2017-09-15T12:00:44.936Z,1003.55
2017-09-15T12:01:44.925Z,1002.99
2017-09-15T12:02:44.896Z,1002.92
2017-09-15T12:03:44.877Z,1002.97
2017-09-15T12:04:44.860Z,1003.07